createdAt,value
2022-09-20T00:00:27.353Z,9.36
2022-09-20T00:02:55.049Z,9.35
2022-09-20T00:05:22.721Z,9.34
2022-09-20T00:07:51.702Z,9.33
2022-09-20T00:10:19.423Z,9.31
2022-09-20T00:12:47.049Z,9.29
2022-09-20T00:15:14.696Z,9.28
2022-09-20T00:17:42.288Z,9.25
2022-09-20T00:20:10.431Z,9.23
2022-09-20T00:22:38.029Z,9.22
2022-09-20T00:25:08.987Z,9.20
2022-09-20T00:27:36.596Z,9.17
2022-09-20T00:30:04.439Z,9.16
2022-09-20T00:32:32.380Z,9.14
2022-09-20T00:35:08.212Z,9.10
2022-09-20T00:37:36.516Z,9.07
2022-09-20T00:40:05.511Z,9.04
2022-09-20T00:42:34.627Z,9.02
2022-09-20T00:45:04.440Z,8.98
2022-09-20T00:47:38.522Z,8.97
2022-09-20T00:50:19.932Z,8.94
2022-09-20T00:52:51.441Z,8.92
2022-09-20T00:55:20.613Z,8.89
2022-09-20T00:57:49.883Z,8.85
2022-09-20T01:00:17.960Z,8.82
2022-09-20T01:02:50.295Z,8.78
2022-09-20T01:05:20.432Z,8.76
2022-09-20T01:07:51.340Z,8.70
2022-09-20T01:10:19.096Z,8.68
2022-09-20T01:12:49.883Z,8.63
2022-09-20T01:15:18.194Z,8.58
2022-09-20T01:17:48.905Z,8.53
2022-09-20T01:20:20.454Z,8.46
2022-09-20T01:23:10.368Z,8.39
2022-09-20T01:25:59.671Z,8.33
2022-09-20T01:28:31.135Z,8.28
2022-09-20T01:31:08.057Z,8.25
2022-09-20T01:33:45.728Z,8.21
2022-09-20T01:36:20.000Z,8.17
2022-09-20T01:38:57.801Z,8.13
2022-09-20T01:41:30.565Z,8.12
2022-09-20T01:44:07.823Z,8.11
2022-09-20T01:46:38.169Z,8.08
2022-09-20T01:49:19.890Z,8.05
2022-09-20T01:52:16.974Z,8.03
2022-09-20T01:55:10.650Z,8.00
2022-09-20T01:58:14.704Z,7.95
2022-09-20T02:01:00.205Z,7.89
2022-09-20T02:03:49.949Z,7.85
2022-09-20T02:06:43.919Z,7.82
2022-09-20T02:09:34.016Z,7.80
2022-09-20T02:12:30.404Z,7.78
2022-09-20T02:15:10.135Z,7.78
2022-09-20T02:17:50.534Z,7.76
2022-09-20T02:20:32.089Z,7.77
2022-09-20T02:23:30.130Z,7.79
2022-09-20T02:26:12.549Z,7.79
2022-09-20T02:28:54.066Z,7.80
2022-09-20T02:31:40.139Z,7.85
2022-09-20T02:34:33.079Z,7.88
2022-09-20T02:37:22.501Z,7.92
2022-09-20T02:40:00.295Z,7.95
2022-09-20T02:42:38.109Z,7.96
2022-09-20T02:45:12.561Z,7.99
2022-09-20T02:47:43.713Z,8.02
2022-09-20T02:50:29.930Z,8.04
2022-09-20T02:53:12.563Z,8.06
2022-09-20T02:55:48.683Z,8.10
2022-09-20T02:58:33.140Z,8.14
2022-09-20T03:01:08.654Z,8.16
2022-09-20T03:03:45.438Z,8.17
2022-09-20T03:06:25.490Z,8.20
2022-09-20T03:09:01.963Z,8.22
2022-09-20T03:11:36.815Z,8.26
2022-09-20T03:14:12.769Z,8.27
2022-09-20T03:16:52.915Z,8.28
2022-09-20T03:19:33.506Z,8.29
2022-09-20T03:22:10.432Z,8.31
2022-09-20T03:24:54.607Z,8.33
2022-09-20T03:27:31.980Z,8.36
2022-09-20T03:30:16.184Z,8.38
2022-09-20T03:32:57.676Z,8.40
2022-09-20T03:35:40.179Z,8.45
2022-09-20T03:38:30.275Z,8.47
2022-09-20T03:41:12.174Z,8.50
2022-09-20T03:43:55.810Z,8.53
2022-09-20T03:46:27.593Z,8.57
2022-09-20T03:49:20.470Z,8.60
2022-09-20T03:51:59.944Z,8.61
2022-09-20T03:54:59.010Z,8.64
2022-09-20T03:58:03.167Z,8.66
2022-09-20T04:00:50.000Z,8.66
2022-09-20T04:03:38.214Z,8.70
2022-09-20T04:06:24.880Z,8.71
2022-09-20T04:09:14.231Z,8.73
2022-09-20T04:11:52.234Z,8.75
2022-09-20T04:14:27.913Z,8.76
2022-09-20T04:17:02.912Z,8.78
2022-09-20T04:19:36.631Z,8.77
2022-09-20T04:22:07.481Z,8.79
2022-09-20T04:24:43.112Z,8.81
2022-09-20T04:27:17.949Z,8.82
2022-09-20T04:29:51.375Z,8.83
2022-09-20T04:32:25.517Z,8.85
2022-09-20T04:35:18.247Z,8.87
2022-09-20T04:37:47.858Z,8.87
2022-09-20T04:40:27.632Z,8.87
2022-09-20T04:43:40.445Z,8.87
2022-09-20T04:46:32.969Z,8.88
2022-09-20T04:49:37.549Z,8.88
2022-09-20T04:52:45.785Z,8.87
2022-09-20T04:55:55.699Z,8.88
2022-09-20T04:58:49.650Z,8.90
2022-09-20T05:01:55.733Z,8.91
2022-09-20T05:05:08.550Z,8.91
2022-09-20T05:08:33.988Z,8.92
2022-09-20T05:11:43.273Z,8.92
2022-09-20T05:14:38.305Z,8.95
2022-09-20T05:17:25.470Z,8.96
2022-09-20T05:20:24.343Z,8.99
2022-09-20T05:23:10.447Z,9.01
2022-09-20T05:25:56.626Z,9.03
2022-09-20T05:28:32.665Z,9.04
2022-09-20T05:31:07.266Z,9.05
2022-09-20T05:33:45.030Z,9.06
2022-09-20T05:36:21.354Z,9.06
2022-09-20T05:38:53.204Z,9.09
2022-09-20T05:41:32.002Z,9.10
2022-09-20T05:44:09.061Z,9.11
2022-09-20T05:46:47.155Z,9.12
2022-09-20T05:49:25.769Z,9.15
2022-09-20T05:52:07.999Z,9.16
2022-09-20T05:55:01.120Z,9.17
2022-09-20T05:57:40.968Z,9.18
2022-09-20T06:00:13.480Z,9.18
2022-09-20T06:02:51.318Z,9.20
2022-09-20T06:05:33.719Z,9.23
2022-09-20T06:08:17.603Z,9.26
2022-09-20T06:10:57.301Z,9.28
2022-09-20T06:13:39.724Z,9.31
2022-09-20T06:16:11.505Z,9.35
2022-09-20T06:18:46.510Z,9.38
2022-09-20T06:21:30.401Z,9.41
2022-09-20T06:24:01.280Z,9.44
2022-09-20T06:26:34.721Z,9.47
2022-09-20T06:29:05.912Z,9.50
2022-09-20T06:31:34.079Z,9.51
2022-09-20T06:34:05.495Z,9.54
2022-09-20T06:37:03.404Z,9.55
2022-09-20T06:40:00.427Z,9.56
2022-09-20T06:42:29.601Z,9.57
2022-09-20T06:44:58.000Z,9.58
2022-09-20T06:47:26.948Z,9.60
2022-09-20T06:49:55.634Z,9.61
2022-09-20T06:52:24.745Z,9.62
2022-09-20T06:54:55.831Z,9.62
2022-09-20T06:57:28.591Z,9.65
2022-09-20T06:59:56.342Z,9.67
2022-09-20T07:02:24.436Z,9.68
2022-09-20T07:04:53.913Z,9.70
2022-09-20T07:07:21.623Z,9.77
2022-09-20T07:09:51.270Z,9.79
2022-09-20T07:12:19.149Z,9.82
2022-09-20T07:14:46.878Z,9.83
2022-09-20T07:17:14.719Z,9.87
2022-09-20T07:19:42.508Z,9.90
2022-09-20T07:22:10.221Z,9.97
2022-09-20T07:24:37.993Z,10.03
2022-09-20T07:27:07.225Z,10.06
2022-09-20T07:29:35.466Z,10.12
2022-09-20T07:32:03.398Z,10.15
2022-09-20T07:34:32.132Z,10.20
2022-09-20T07:37:00.217Z,10.25
2022-09-20T07:39:28.175Z,10.30
2022-09-20T07:41:55.830Z,10.38
2022-09-20T07:44:28.038Z,10.45
2022-09-20T07:46:59.095Z,10.49
2022-09-20T07:49:28.702Z,10.55
2022-09-20T07:51:56.509Z,10.62
2022-09-20T07:54:24.168Z,10.73
2022-09-20T07:56:52.386Z,10.78
2022-09-20T07:59:20.048Z,10.82
2022-09-20T08:01:49.042Z,10.85
2022-09-20T08:04:16.677Z,10.87
2022-09-20T08:06:46.055Z,10.92
2022-09-20T08:09:14.659Z,10.95
2022-09-20T08:11:43.793Z,10.98
2022-09-20T08:14:16.015Z,11.00
2022-09-20T08:16:45.872Z,11.02
2022-09-20T08:19:18.838Z,11.08
2022-09-20T08:21:46.510Z,11.15
2022-09-20T08:24:16.387Z,11.17
2022-09-20T08:26:44.879Z,11.25
2022-09-20T08:29:13.402Z,11.28
2022-09-20T08:31:42.370Z,11.30
2022-09-20T08:34:12.934Z,11.32
2022-09-20T08:36:46.206Z,11.37
2022-09-20T08:42:12.936Z,11.56
2022-09-20T08:44:57.815Z,11.63
2022-09-20T08:47:28.578Z,11.63
2022-09-20T08:49:57.283Z,11.74
2022-09-20T08:52:36.325Z,11.85
2022-09-20T08:55:07.500Z,11.83
2022-09-20T08:57:35.560Z,11.89
2022-09-20T09:00:05.625Z,11.89
2022-09-20T09:02:34.370Z,11.90
2022-09-20T09:05:04.140Z,11.94
2022-09-20T09:07:33.278Z,12.04
2022-09-20T09:10:02.805Z,12.12
2022-09-20T09:12:35.035Z,12.18
2022-09-20T09:15:19.559Z,12.23
2022-09-20T09:17:47.413Z,12.29
2022-09-20T09:20:21.587Z,12.32
2022-09-20T09:23:02.656Z,12.46
2022-09-20T09:25:34.249Z,12.53
2022-09-20T09:28:06.002Z,12.58
2022-09-20T09:30:35.663Z,12.67
2022-09-20T09:33:25.376Z,12.87
2022-09-20T09:35:55.066Z,12.99
2022-09-20T09:38:26.332Z,12.97
2022-09-20T09:40:55.969Z,12.89
2022-09-20T09:43:27.266Z,12.92
2022-09-20T09:45:55.841Z,12.93
2022-09-20T09:48:26.748Z,12.92
2022-09-20T09:51:10.305Z,12.94
2022-09-20T09:53:40.607Z,13.04
2022-09-20T09:56:28.261Z,13.17
2022-09-20T09:59:10.697Z,13.21
2022-09-20T10:01:45.508Z,13.29
2022-09-20T10:04:22.771Z,13.37
2022-09-20T10:06:59.930Z,13.44
2022-09-20T10:09:49.486Z,13.64
2022-09-20T10:12:27.277Z,13.78
2022-09-20T10:15:08.355Z,13.79
2022-09-20T10:17:52.334Z,13.81
2022-09-20T10:20:37.639Z,13.88
2022-09-20T10:26:21.661Z,13.96
2022-09-20T10:29:03.085Z,14.00
2022-09-20T10:31:45.460Z,14.03
2022-09-20T10:34:43.983Z,14.02
2022-09-20T10:37:19.938Z,14.03
2022-09-20T10:39:57.671Z,14.02
2022-09-20T10:42:55.127Z,13.98
2022-09-20T10:46:03.425Z,13.97
2022-09-20T10:48:26.573Z,13.97
2022-09-20T10:50:59.263Z,14.04
2022-09-20T10:53:37.313Z,14.09
2022-09-20T10:56:17.542Z,14.14
2022-09-20T10:59:19.094Z,14.13
2022-09-20T11:01:59.847Z,14.32
2022-09-20T11:04:55.021Z,14.54
2022-09-20T11:07:34.969Z,14.64
2022-09-20T11:10:08.616Z,14.75
2022-09-20T11:12:42.589Z,14.90
2022-09-20T11:15:20.277Z,14.98
2022-09-20T11:18:01.849Z,14.99
2022-09-20T11:20:36.556Z,15.00
2022-09-20T11:23:11.338Z,14.97
2022-09-20T11:25:44.470Z,15.08
2022-09-20T11:28:20.477Z,15.48
2022-09-20T11:30:57.479Z,15.79
2022-09-20T11:33:30.660Z,15.93
2022-09-20T11:36:02.393Z,16.07
2022-09-20T11:38:37.269Z,16.12
2022-09-20T11:41:12.765Z,16.09
2022-09-20T11:43:44.400Z,16.06
2022-09-20T11:46:16.142Z,16.35
2022-09-20T11:48:47.915Z,16.78
2022-09-20T11:51:45.348Z,17.20
2022-09-20T11:54:37.341Z,17.39
2022-09-20T11:57:07.999Z,17.55
2022-09-20T11:59:38.413Z,17.53
2022-09-20T12:02:19.285Z,17.60
2022-09-20T12:04:53.086Z,17.93
2022-09-20T12:07:24.947Z,18.16
2022-09-20T12:09:56.374Z,18.24
2022-09-20T12:12:34.461Z,18.53
2022-09-20T12:15:06.887Z,18.78
2022-09-20T12:18:22.330Z,19.10
2022-09-20T12:21:16.534Z,19.37
2022-09-20T12:24:21.119Z,19.66
2022-09-20T12:26:51.301Z,19.82
2022-09-20T12:29:54.622Z,20.03
2022-09-20T12:32:48.540Z,20.21
2022-09-20T12:35:55.715Z,20.56
2022-09-20T12:38:31.230Z,20.83
2022-09-20T12:41:00.777Z,20.98
2022-09-20T12:43:31.588Z,20.93
2022-09-20T12:46:04.560Z,20.92
2022-09-20T12:48:39.015Z,20.77
2022-09-20T12:51:38.070Z,20.76
2022-09-20T12:54:10.640Z,20.96
2022-09-20T12:56:41.488Z,21.34
2022-09-20T12:59:23.003Z,21.53
2022-09-20T13:01:50.847Z,21.51
2022-09-20T13:04:55.705Z,21.61
2022-09-20T13:07:43.635Z,21.53
2022-09-20T13:10:30.108Z,21.69
2022-09-20T13:13:04.208Z,21.57
2022-09-20T13:15:33.195Z,21.62
2022-09-20T13:18:02.996Z,21.72
2022-09-20T13:20:34.932Z,21.86
2022-09-20T13:23:05.333Z,22.11
2022-09-20T13:25:35.367Z,22.17
2022-09-20T13:28:08.915Z,21.98
2022-09-20T13:30:37.043Z,21.84
2022-09-20T13:33:21.952Z,22.08
2022-09-20T13:35:52.638Z,22.27
2022-09-20T13:38:25.092Z,22.33
2022-09-20T13:41:00.608Z,22.30
2022-09-20T13:43:33.418Z,22.36
2022-09-20T13:46:08.685Z,22.49
2022-09-20T13:48:36.995Z,22.46
2022-09-20T13:51:04.991Z,22.50
2022-09-20T13:53:41.521Z,22.55
2022-09-20T13:56:19.129Z,22.68
2022-09-20T13:58:47.242Z,22.72
2022-09-20T14:01:26.667Z,22.67
2022-09-20T14:03:55.442Z,22.72
2022-09-20T14:06:29.482Z,22.64
2022-09-20T14:08:59.634Z,22.65
2022-09-20T14:11:31.128Z,22.79
2022-09-20T14:14:01.628Z,22.98
2022-09-20T14:16:32.462Z,23.17
2022-09-20T14:19:01.198Z,23.38
2022-09-20T14:21:33.055Z,23.51
2022-09-20T14:24:04.120Z,23.54
2022-09-20T14:26:36.192Z,23.32
2022-09-20T14:29:31.595Z,23.11
2022-09-20T14:32:03.501Z,23.05
2022-09-20T14:34:31.686Z,23.03
2022-09-20T14:37:07.821Z,23.01
2022-09-20T14:39:46.300Z,23.08
2022-09-20T14:42:21.768Z,22.89
2022-09-20T14:44:54.801Z,22.72
2022-09-20T14:47:28.346Z,22.52
2022-09-20T14:49:58.398Z,22.40
2022-09-20T14:52:37.471Z,22.29
2022-09-20T14:55:20.238Z,22.18
2022-09-20T14:57:50.099Z,22.06
2022-09-20T15:00:20.715Z,21.83
2022-09-20T15:02:48.810Z,21.66
2022-09-20T15:05:23.892Z,21.40
2022-09-20T15:07:51.663Z,21.29
2022-09-20T15:10:19.660Z,21.17
2022-09-20T15:12:48.755Z,21.10
2022-09-20T15:15:19.235Z,21.04
2022-09-20T15:17:48.617Z,20.81
2022-09-20T15:20:23.814Z,20.55
2022-09-20T15:22:52.366Z,20.30
2022-09-20T15:25:22.121Z,20.08
2022-09-20T15:27:51.811Z,19.76
2022-09-20T15:30:21.080Z,19.47
2022-09-20T15:32:49.271Z,19.21
2022-09-20T15:35:17.229Z,19.05
2022-09-20T15:37:45.481Z,18.91
2022-09-20T15:40:13.327Z,18.81
2022-09-20T15:42:41.796Z,18.73
2022-09-20T15:45:12.529Z,18.52
2022-09-20T15:47:41.097Z,18.38
2022-09-20T15:50:10.092Z,18.29
2022-09-20T15:52:39.867Z,18.21
2022-09-20T15:55:09.270Z,18.15
2022-09-20T15:57:36.946Z,18.09
2022-09-20T16:00:05.234Z,17.99
2022-09-20T16:02:42.373Z,17.89
2022-09-20T16:05:11.008Z,17.78
2022-09-20T16:07:38.748Z,17.69
2022-09-20T16:10:07.242Z,17.55
2022-09-20T16:12:34.948Z,17.42
2022-09-20T16:15:02.624Z,17.35
2022-09-20T16:17:47.832Z,17.24
2022-09-20T16:20:17.703Z,17.05
2022-09-20T16:22:45.517Z,16.88
2022-09-20T16:25:13.249Z,16.73
2022-09-20T16:27:41.141Z,16.59
2022-09-20T16:30:09.811Z,16.49
2022-09-20T16:32:37.651Z,16.38
2022-09-20T16:35:07.903Z,16.29
2022-09-20T16:37:39.321Z,16.15
2022-09-20T16:40:11.259Z,16.05
2022-09-20T16:42:39.030Z,15.96
2022-09-20T16:45:07.600Z,15.88
2022-09-20T16:47:37.791Z,15.77
2022-09-20T16:50:06.160Z,15.65
2022-09-20T16:52:33.893Z,15.55
2022-09-20T16:55:03.232Z,15.44
2022-09-20T16:57:32.032Z,15.31
2022-09-20T16:59:59.642Z,15.15
2022-09-20T17:02:27.275Z,15.05
2022-09-20T17:04:54.844Z,14.96
2022-09-20T17:07:24.575Z,14.84
2022-09-20T17:09:52.145Z,14.73
2022-09-20T17:12:23.383Z,14.62
2022-09-20T17:14:50.942Z,14.52
2022-09-20T17:17:22.541Z,14.44
2022-09-20T17:19:50.130Z,14.33
2022-09-20T17:22:17.705Z,14.26
2022-09-20T17:24:45.349Z,14.19
2022-09-20T17:27:13.299Z,14.11
2022-09-20T17:29:42.207Z,14.03
2022-09-20T17:32:09.842Z,13.95
2022-09-20T17:34:37.651Z,13.88
2022-09-20T17:37:05.919Z,13.78
2022-09-20T17:39:33.553Z,13.70
2022-09-20T17:42:01.403Z,13.60
2022-09-20T17:44:29.428Z,13.49
2022-09-20T17:46:58.437Z,13.38
2022-09-20T17:49:27.628Z,13.29
2022-09-20T17:51:56.761Z,13.20
2022-09-20T17:54:24.990Z,13.13
2022-09-20T17:56:55.971Z,13.04
2022-09-20T17:59:24.545Z,12.96
2022-09-20T18:01:54.321Z,12.89
2022-09-20T18:04:24.477Z,12.81
2022-09-20T18:06:53.888Z,12.73
2022-09-20T18:09:24.146Z,12.66
2022-09-20T18:11:53.238Z,12.61
2022-09-20T18:14:23.629Z,12.54
2022-09-20T18:16:53.201Z,12.47
2022-09-20T18:19:22.597Z,12.38
2022-09-20T18:21:51.761Z,12.32
2022-09-20T18:24:19.452Z,12.25
2022-09-20T18:26:47.070Z,12.17
2022-09-20T18:29:17.866Z,12.10
2022-09-20T18:31:48.424Z,12.04
2022-09-20T18:34:18.678Z,11.98
2022-09-20T18:36:47.823Z,11.93
2022-09-20T18:39:16.832Z,11.87
2022-09-20T18:41:44.840Z,11.80
2022-09-20T18:44:13.618Z,11.73
2022-09-20T18:46:41.633Z,11.67
2022-09-20T18:49:13.491Z,11.62
2022-09-20T18:51:42.099Z,11.55
2022-09-20T18:54:11.373Z,11.51
2022-09-20T18:56:44.115Z,11.44
2022-09-20T18:59:16.004Z,11.39
2022-09-20T19:02:03.481Z,11.33
2022-09-20T19:04:50.270Z,11.27
2022-09-20T19:07:26.607Z,11.22
2022-09-20T19:10:00.856Z,11.14
2022-09-20T19:12:40.508Z,11.10
2022-09-20T19:15:23.592Z,11.04
2022-09-20T19:18:06.879Z,11.00
2022-09-20T19:20:44.900Z,10.96
2022-09-20T19:23:35.422Z,10.91
2022-09-20T19:26:08.862Z,10.87
2022-09-20T19:28:38.419Z,10.82
2022-09-20T19:31:06.711Z,10.78
2022-09-20T19:33:34.897Z,10.74
2022-09-20T19:36:03.739Z,10.70
2022-09-20T19:38:42.142Z,10.67
2022-09-20T19:41:27.415Z,10.63
2022-09-20T19:44:15.415Z,10.58
2022-09-20T19:46:53.647Z,10.55
2022-09-20T19:49:29.923Z,10.51
2022-09-20T19:51:58.026Z,10.48
2022-09-20T19:54:26.176Z,10.43
2022-09-20T19:56:56.485Z,10.39
2022-09-20T19:59:28.141Z,10.37
2022-09-20T20:01:57.572Z,10.34
2022-09-20T20:04:26.041Z,10.30
2022-09-20T20:07:04.542Z,10.26
2022-09-20T20:09:42.264Z,10.21
2022-09-20T20:12:15.513Z,10.17
2022-09-20T20:14:54.532Z,10.16
2022-09-20T20:17:37.397Z,10.12
2022-09-20T20:20:17.038Z,10.08
2022-09-20T20:23:20.632Z,10.04
2022-09-20T20:25:55.564Z,10.01
2022-09-20T20:28:23.205Z,9.98
2022-09-20T20:30:54.668Z,9.96
2022-09-20T20:33:24.301Z,9.91
2022-09-20T20:35:55.744Z,9.88
2022-09-20T20:38:26.191Z,9.84
2022-09-20T20:41:04.622Z,9.83
2022-09-20T20:43:33.074Z,9.79
2022-09-20T20:46:02.100Z,9.77
2022-09-20T20:48:30.500Z,9.72
2022-09-20T20:51:02.958Z,9.70
2022-09-20T20:53:32.277Z,9.68
2022-09-20T20:56:02.254Z,9.67
2022-09-20T20:58:32.271Z,9.63
2022-09-20T21:01:09.889Z,9.60
2022-09-20T21:03:37.603Z,9.57
2022-09-20T21:06:05.837Z,9.54
2022-09-20T21:08:34.241Z,9.50
2022-09-20T21:11:03.740Z,9.46
2022-09-20T21:13:31.457Z,9.41
2022-09-20T21:16:08.887Z,9.34
2022-09-20T21:18:37.013Z,9.29
2022-09-20T21:21:06.205Z,9.23
2022-09-20T21:23:37.283Z,9.17
2022-09-20T21:26:08.999Z,9.10
2022-09-20T21:28:38.542Z,9.05
2022-09-20T21:31:08.851Z,9.00
2022-09-20T21:33:38.551Z,8.94
2022-09-20T21:36:08.895Z,8.88
2022-09-20T21:38:37.393Z,8.83
2022-09-20T21:41:07.645Z,8.80
2022-09-20T21:43:36.015Z,8.75
2022-09-20T21:46:04.858Z,8.69
2022-09-20T21:48:33.862Z,8.65
2022-09-20T21:51:03.170Z,8.61
2022-09-20T21:53:30.963Z,8.56
2022-09-20T21:55:59.430Z,8.53
2022-09-20T21:58:27.712Z,8.49
2022-09-20T22:01:00.619Z,8.46
2022-09-20T22:03:34.215Z,8.43
2022-09-20T22:06:06.435Z,8.39
2022-09-20T22:08:34.239Z,8.36
2022-09-20T22:11:02.452Z,8.32
2022-09-20T22:13:30.513Z,8.30
2022-09-20T22:16:04.111Z,8.26
2022-09-20T22:18:38.339Z,8.21
2022-09-20T22:21:08.283Z,8.19
2022-09-20T22:23:36.270Z,8.16
2022-09-20T22:26:06.156Z,8.13
2022-09-20T22:28:33.971Z,8.09
2022-09-20T22:31:07.290Z,8.05
2022-09-20T22:33:37.745Z,8.03
2022-09-20T22:36:09.212Z,8.00
2022-09-20T22:38:37.038Z,7.98
2022-09-20T22:41:05.012Z,7.98
2022-09-20T22:43:33.501Z,7.95
2022-09-20T22:46:05.605Z,7.93
2022-09-20T22:48:34.001Z,7.90
2022-09-20T22:51:04.734Z,7.88
2022-09-20T22:53:33.241Z,7.83
2022-09-20T22:56:08.663Z,7.74
2022-09-20T22:58:37.882Z,7.65
2022-09-20T23:01:07.542Z,7.62
2022-09-20T23:03:35.458Z,7.59
2022-09-20T23:06:05.287Z,7.57
2022-09-20T23:08:33.286Z,7.56
2022-09-20T23:11:02.422Z,7.53
2022-09-20T23:13:30.459Z,7.47
2022-09-20T23:15:58.314Z,7.47
2022-09-20T23:18:26.795Z,7.44
2022-09-20T23:21:01.711Z,7.43
2022-09-20T23:23:30.999Z,7.40
2022-09-20T23:26:07.361Z,7.39
2022-09-20T23:28:35.616Z,7.37
2022-09-20T23:31:04.906Z,7.36
2022-09-20T23:33:32.852Z,7.34
2022-09-20T23:36:01.063Z,7.34
2022-09-20T23:38:30.042Z,7.31
2022-09-20T23:41:03.204Z,7.29
2022-09-20T23:43:30.918Z,7.27
2022-09-20T23:45:58.832Z,7.23
2022-09-20T23:48:26.881Z,7.21
2022-09-20T23:50:54.831Z,7.19
2022-09-20T23:53:22.934Z,7.19
2022-09-20T23:55:52.080Z,7.17
2022-09-20T23:58:19.839Z,7.16
